Airport Name : Hemavan

Other Name : Hemavan

ICAO : ESUT

IATA : HMV

FAA :

Latitude : 65.806111

Longitude : 15.082778

Country : Sweden

Local Date and Time : 20 Apr 2021 15:31

 

TAF (Terminal Aerodrome Forecast)

 

METAR (METeorological Aerodrome Report)

ESUT 201320Z AUTO 16007KT 9999 BKN072/// OVC092/// 09/M03 Q1010

ESUT 201250Z AUTO 16006KT 9999 BKN072/// BKN086/// 09/M03 Q1010

ESUT 201220Z AUTO 17006KT 9999 BKN076/// 09/M03 Q1011

ESUT 201150Z AUTO 14008KT 100V160 9999 NCD 09/M03 Q1011

ESUT 201120Z AUTO 15007KT 120V190 9999 NCD 09/M03 Q1012

ESUT 201050Z AUTO 16007KT 130V190 9999 NCD 08/M03 Q1012

ESUT 201020Z AUTO VRB02KT 9999 NCD 11/M03 Q1013

ESUT 200950Z AUTO 32003KT 9999 NCD 07/M04 Q1013

To Charter a Jet Click here.